sensor_id;sensor_type;location;lat;lon;timestamp;P1;durP1;ratioP1;P2;durP2;ratioP2
37379;SDS011;23252;-33.992;18.480;2023-03-20T00:00:57;7.13;;;1.92;;
37379;SDS011;23252;-33.992;18.480;2023-03-20T00:03:23;7.10;;;1.70;;
37379;SDS011;23252;-33.992;18.480;2023-03-20T00:05:50;5.20;;;1.58;;
37379;SDS011;23252;-33.992;18.480;2023-03-20T00:08:17;4.88;;;1.60;;
37379;SDS011;23252;-33.992;18.480;2023-03-20T00:10:44;5.03;;;1.47;;
37379;SDS011;23252;-33.992;18.480;2023-03-20T00:13:20;9.23;;;1.58;;
37379;SDS011;23252;-33.992;18.480;2023-03-20T00:15:50;6.32;;;1.67;;
37379;SDS011;23252;-33.992;18.480;2023-03-20T00:18:18;6.32;;;1.33;;
37379;SDS011;23252;-33.992;18.480;2023-03-20T00:20:48;10.85;;;1.67;;
37379;SDS011;23252;-33.992;18.480;2023-03-20T00:23:15;5.40;;;1.42;;
37379;SDS011;23252;-33.992;18.480;2023-03-20T00:25:43;6.55;;;1.90;;
37379;SDS011;23252;-33.992;18.480;2023-03-20T00:28:25;9.75;;;1.88;;
37379;SDS011;23252;-33.992;18.480;2023-03-20T00:30:54;6.93;;;2.33;;
37379;SDS011;23252;-33.992;18.480;2023-03-20T00:33:21;8.48;;;1.88;;
37379;SDS011;23252;-33.992;18.480;2023-03-20T00:35:48;11.20;;;2.30;;
37379;SDS011;23252;-33.992;18.480;2023-03-20T00:38:14;12.98;;;2.25;;
37379;SDS011;23252;-33.992;18.480;2023-03-20T00:40:41;11.77;;;2.53;;
37379;SDS011;23252;-33.992;18.480;2023-03-20T00:43:07;7.90;;;2.10;;
37379;SDS011;23252;-33.992;18.480;2023-03-20T00:45:35;9.95;;;2.25;;
37379;SDS011;23252;-33.992;18.480;2023-03-20T00:48:01;7.83;;;2.53;;
37379;SDS011;23252;-33.992;18.480;2023-03-20T00:50:29;15.65;;;2.80;;
37379;SDS011;23252;-33.992;18.480;2023-03-20T00:52:56;9.93;;;1.65;;
37379;SDS011;23252;-33.992;18.480;2023-03-20T00:55:24;13.35;;;1.85;;
37379;SDS011;23252;-33.992;18.480;2023-03-20T00:57:54;12.88;;;2.17;;
37379;SDS011;23252;-33.992;18.480;2023-03-20T01:05:49;11.32;;;1.75;;
37379;SDS011;23252;-33.992;18.480;2023-03-20T01:08:17;10.55;;;1.92;;
37379;SDS011;23252;-33.992;18.480;2023-03-20T01:10:46;6.70;;;1.38;;
37379;SDS011;23252;-33.992;18.480;2023-03-20T01:13:16;6.13;;;1.25;;
37379;SDS011;23252;-33.992;18.480;2023-03-20T01:15:52;9.77;;;1.67;;
37379;SDS011;23252;-33.992;18.480;2023-03-20T01:18:21;8.48;;;1.55;;
37379;SDS011;23252;-33.992;18.480;2023-03-20T01:20:48;6.80;;;1.00;;
37379;SDS011;23252;-33.992;18.480;2023-03-20T01:23:17;6.70;;;1.17;;
37379;SDS011;23252;-33.992;18.480;2023-03-20T01:28:18;9.17;;;1.07;;
37379;SDS011;23252;-33.992;18.480;2023-03-20T01:30:47;5.37;;;1.10;;
37379;SDS011;23252;-33.992;18.480;2023-03-20T01:33:18;4.75;;;1.08;;
37379;SDS011;23252;-33.992;18.480;2023-03-20T01:35:46;5.18;;;0.95;;
37379;SDS011;23252;-33.992;18.480;2023-03-20T01:38:16;8.75;;;1.50;;
37379;SDS011;23252;-33.992;18.480;2023-03-20T01:40:47;4.95;;;0.70;;
37379;SDS011;23252;-33.992;18.480;2023-03-20T01:43:24;9.70;;;1.33;;
37379;SDS011;23252;-33.992;18.480;2023-03-20T01:46:00;9.73;;;0.93;;
37379;SDS011;23252;-33.992;18.480;2023-03-20T01:51:20;4.97;;;1.15;;
37379;SDS011;23252;-33.992;18.480;2023-03-20T01:53:53;7.65;;;1.33;;
37379;SDS011;23252;-33.992;18.480;2023-03-20T01:56:26;6.03;;;1.95;;
37379;SDS011;23252;-33.992;18.480;2023-03-20T01:58:56;13.55;;;7.40;;
37379;SDS011;23252;-33.992;18.480;2023-03-20T02:01:26;17.48;;;12.10;;
37379;SDS011;23252;-33.992;18.480;2023-03-20T02:03:54;16.70;;;9.82;;
37379;SDS011;23252;-33.992;18.480;2023-03-20T02:06:22;15.02;;;7.57;;
37379;SDS011;23252;-33.992;18.480;2023-03-20T02:08:51;10.88;;;6.18;;
37379;SDS011;23252;-33.992;18.480;2023-03-20T02:11:18;7.63;;;3.30;;
37379;SDS011;23252;-33.992;18.480;2023-03-20T02:13:51;9.23;;;2.78;;
37379;SDS011;23252;-33.992;18.480;2023-03-20T02:16:19;5.00;;;1.25;;
37379;SDS011;23252;-33.992;18.480;2023-03-20T02:18:47;4.77;;;1.23;;
37379;SDS011;23252;-33.992;18.480;2023-03-20T02:42:57;9.43;;;1.70;;
37379;SDS011;23252;-33.992;18.480;2023-03-20T02:46:30;7.63;;;1.08;;
37379;SDS011;23252;-33.992;18.480;2023-03-20T02:48:52;9.45;;;1.25;;
37379;SDS011;23252;-33.992;18.480;2023-03-20T02:51:37;8.25;;;1.58;;
37379;SDS011;23252;-33.992;18.480;2023-03-20T02:54:25;7.78;;;1.45;;
37379;SDS011;23252;-33.992;18.480;2023-03-20T03:02:41;8.88;;;1.65;;
37379;SDS011;23252;-33.992;18.480;2023-03-20T03:05:18;9.07;;;1.65;;
37379;SDS011;23252;-33.992;18.480;2023-03-20T03:07:48;9.07;;;1.33;;
37379;SDS011;23252;-33.992;18.480;2023-03-20T03:10:23;8.05;;;1.63;;
37379;SDS011;23252;-33.992;18.480;2023-03-20T03:12:55;10.77;;;1.80;;
37379;SDS011;23252;-33.992;18.480;2023-03-20T03:15:40;10.70;;;1.65;;
37379;SDS011;23252;-33.992;18.480;2023-03-20T03:18:13;9.23;;;1.52;;
37379;SDS011;23252;-33.992;18.480;2023-03-20T03:20:46;14.15;;;1.52;;
37379;SDS011;23252;-33.992;18.480;2023-03-20T03:23:25;9.13;;;1.60;;
37379;SDS011;23252;-33.992;18.480;2023-03-20T03:26:11;8.20;;;1.88;;
37379;SDS011;23252;-33.992;18.480;2023-03-20T03:28:48;8.73;;;1.70;;
37379;SDS011;23252;-33.992;18.480;2023-03-20T03:31:26;10.82;;;1.33;;
37379;SDS011;23252;-33.992;18.480;2023-03-20T03:33:55;10.77;;;1.80;;
37379;SDS011;23252;-33.992;18.480;2023-03-20T03:36:37;15.30;;;2.17;;
37379;SDS011;23252;-33.992;18.480;2023-03-20T03:42:08;12.80;;;2.15;;
37379;SDS011;23252;-33.992;18.480;2023-03-20T03:50:17;15.45;;;2.70;;
37379;SDS011;23252;-33.992;18.480;2023-03-20T03:53:10;16.83;;;2.50;;
37379;SDS011;23252;-33.992;18.480;2023-03-20T03:55:40;21.88;;;3.05;;
37379;SDS011;23252;-33.992;18.480;2023-03-20T03:58:13;12.98;;;1.95;;
37379;SDS011;23252;-33.992;18.480;2023-03-20T04:00:47;21.55;;;3.13;;
37379;SDS011;23252;-33.992;18.480;2023-03-20T04:03:17;14.25;;;2.00;;
37379;SDS011;23252;-33.992;18.480;2023-03-20T04:05:48;16.20;;;2.40;;
37379;SDS011;23252;-33.992;18.480;2023-03-20T04:08:19;17.17;;;2.15;;
37379;SDS011;23252;-33.992;18.480;2023-03-20T04:10:45;17.20;;;3.10;;
37379;SDS011;23252;-33.992;18.480;2023-03-20T04:13:14;14.45;;;2.60;;
37379;SDS011;23252;-33.992;18.480;2023-03-20T04:15:41;12.82;;;2.92;;
37379;SDS011;23252;-33.992;18.480;2023-03-20T04:20:39;12.73;;;2.25;;
37379;SDS011;23252;-33.992;18.480;2023-03-20T04:23:06;18.65;;;2.95;;
37379;SDS011;23252;-33.992;18.480;2023-03-20T04:25:35;23.30;;;2.60;;
37379;SDS011;23252;-33.992;18.480;2023-03-20T04:28:05;17.45;;;2.53;;
37379;SDS011;23252;-33.992;18.480;2023-03-20T04:30:32;16.77;;;2.50;;
37379;SDS011;23252;-33.992;18.480;2023-03-20T04:32:58;13.50;;;2.30;;
37379;SDS011;23252;-33.992;18.480;2023-03-20T04:35:25;14.77;;;2.47;;
37379;SDS011;23252;-33.992;18.480;2023-03-20T04:37:51;21.33;;;3.23;;
37379;SDS011;23252;-33.992;18.480;2023-03-20T04:40:18;18.07;;;3.30;;
37379;SDS011;23252;-33.992;18.480;2023-03-20T04:42:44;16.93;;;3.43;;
37379;SDS011;23252;-33.992;18.480;2023-03-20T04:45:11;16.37;;;2.70;;
37379;SDS011;23252;-33.992;18.480;2023-03-20T04:47:37;19.10;;;3.08;;
37379;SDS011;23252;-33.992;18.480;2023-03-20T04:50:04;16.58;;;3.22;;
37379;SDS011;23252;-33.992;18.480;2023-03-20T04:52:31;22.48;;;3.15;;
37379;SDS011;23252;-33.992;18.480;2023-03-20T04:54:58;19.20;;;3.10;;
37379;SDS011;23252;-33.992;18.480;2023-03-20T04:57:24;15.15;;;3.03;;
37379;SDS011;23252;-33.992;18.480;2023-03-20T04:59:52;15.98;;;2.70;;
37379;SDS011;23252;-33.992;18.480;2023-03-20T05:02:19;16.70;;;3.07;;
37379;SDS011;23252;-33.992;18.480;2023-03-20T05:04:45;9.97;;;2.30;;
37379;SDS011;23252;-33.992;18.480;2023-03-20T05:07:12;14.27;;;2.50;;
37379;SDS011;23252;-33.992;18.480;2023-03-20T05:09:38;9.70;;;1.73;;
37379;SDS011;23252;-33.992;18.480;2023-03-20T05:12:05;15.63;;;2.97;;
37379;SDS011;23252;-33.992;18.480;2023-03-20T05:14:31;21.90;;;4.20;;
37379;SDS011;23252;-33.992;18.480;2023-03-20T05:16:58;18.95;;;3.47;;
37379;SDS011;23252;-33.992;18.480;2023-03-20T05:19:25;26.95;;;3.17;;
37379;SDS011;23252;-33.992;18.480;2023-03-20T05:21:52;18.47;;;3.77;;
37379;SDS011;23252;-33.992;18.480;2023-03-20T05:24:18;31.77;;;3.63;;
37379;SDS011;23252;-33.992;18.480;2023-03-20T05:26:45;29.35;;;4.00;;
37379;SDS011;23252;-33.992;18.480;2023-03-20T05:29:12;26.92;;;3.80;;
37379;SDS011;23252;-33.992;18.480;2023-03-20T05:31:38;27.17;;;3.60;;
37379;SDS011;23252;-33.992;18.480;2023-03-20T05:34:05;25.08;;;3.20;;
37379;SDS011;23252;-33.992;18.480;2023-03-20T05:36:32;31.58;;;3.75;;
37379;SDS011;23252;-33.992;18.480;2023-03-20T05:38:58;20.67;;;3.07;;
37379;SDS011;23252;-33.992;18.480;2023-03-20T05:41:25;22.40;;;3.22;;
37379;SDS011;23252;-33.992;18.480;2023-03-20T05:43:51;18.73;;;3.03;;
37379;SDS011;23252;-33.992;18.480;2023-03-20T05:46:18;14.95;;;2.58;;
37379;SDS011;23252;-33.992;18.480;2023-03-20T05:48:44;19.90;;;3.43;;
37379;SDS011;23252;-33.992;18.480;2023-03-20T05:51:11;17.83;;;3.10;;
37379;SDS011;23252;-33.992;18.480;2023-03-20T05:53:37;22.10;;;3.93;;
37379;SDS011;23252;-33.992;18.480;2023-03-20T05:56:04;21.80;;;3.73;;
37379;SDS011;23252;-33.992;18.480;2023-03-20T05:58:31;27.75;;;4.10;;
37379;SDS011;23252;-33.992;18.480;2023-03-20T06:00:57;25.55;;;3.78;;
37379;SDS011;23252;-33.992;18.480;2023-03-20T06:03:24;30.73;;;4.03;;
37379;SDS011;23252;-33.992;18.480;2023-03-20T06:05:50;25.75;;;4.30;;
37379;SDS011;23252;-33.992;18.480;2023-03-20T06:08:17;22.87;;;4.50;;
37379;SDS011;23252;-33.992;18.480;2023-03-20T06:10:43;24.27;;;4.90;;
37379;SDS011;23252;-33.992;18.480;2023-03-20T06:13:10;22.03;;;4.40;;
37379;SDS011;23252;-33.992;18.480;2023-03-20T06:15:36;22.60;;;3.90;;
37379;SDS011;23252;-33.992;18.480;2023-03-20T06:18:03;22.73;;;3.87;;
37379;SDS011;23252;-33.992;18.480;2023-03-20T06:20:29;15.13;;;3.05;;
37379;SDS011;23252;-33.992;18.480;2023-03-20T06:22:56;20.60;;;4.05;;
37379;SDS011;23252;-33.992;18.480;2023-03-20T06:25:23;20.33;;;3.08;;
37379;SDS011;23252;-33.992;18.480;2023-03-20T06:27:53;15.93;;;2.63;;
37379;SDS011;23252;-33.992;18.480;2023-03-20T06:30:19;15.23;;;2.65;;
37379;SDS011;23252;-33.992;18.480;2023-03-20T06:32:46;13.03;;;2.43;;
37379;SDS011;23252;-33.992;18.480;2023-03-20T06:35:12;13.98;;;2.85;;
37379;SDS011;23252;-33.992;18.480;2023-03-20T06:37:39;15.63;;;2.60;;
37379;SDS011;23252;-33.992;18.480;2023-03-20T06:40:06;16.33;;;3.15;;
37379;SDS011;23252;-33.992;18.480;2023-03-20T06:42:35;18.55;;;3.42;;
37379;SDS011;23252;-33.992;18.480;2023-03-20T06:45:02;23.53;;;3.40;;
37379;SDS011;23252;-33.992;18.480;2023-03-20T06:47:29;20.17;;;2.83;;
37379;SDS011;23252;-33.992;18.480;2023-03-20T06:49:55;23.52;;;3.92;;
37379;SDS011;23252;-33.992;18.480;2023-03-20T06:52:22;29.50;;;5.17;;
37379;SDS011;23252;-33.992;18.480;2023-03-20T06:56:12;22.33;;;3.90;;
37379;SDS011;23252;-33.992;18.480;2023-03-20T06:58:39;26.90;;;4.88;;
37379;SDS011;23252;-33.992;18.480;2023-03-20T07:01:12;28.23;;;4.05;;
37379;SDS011;23252;-33.992;18.480;2023-03-20T07:03:41;29.23;;;4.38;;
37379;SDS011;23252;-33.992;18.480;2023-03-20T07:06:09;22.98;;;3.75;;
37379;SDS011;23252;-33.992;18.480;2023-03-20T07:08:36;27.10;;;4.28;;
